Celebrity Century — 9HJI9 — position and weather

sailwx.info

Track history (hours):
 
Tides and Currents Weather Stations Pressure Air Temp Water Temp Dewpoint Dewpoint Depression Visibility Wind Speed Wind Dir Waves Ship Positions

Celebrity Century

Last reported at 2019-Sep-21 10:58 UTC. Time now 2019-Sep-21 11:12 UTC.
Position N 38°08' E 013°22'.

Length 247 m; draft 8 m.

Type: Ship. MMSI: 249054000.

Date/timePositionNaut miles runAvg speedWind from/ knotsBaromVisibWave heightAir tempDewpointWater temp
2019-Sep-21 10:58N 38°08' E 013°22'0 0.0
2019-Sep-21 10:28N 38°08' E 013°22'0 0.0
2019-Sep-21 09:58N 38°08' E 013°22'0 0.0
2019-Sep-21 09:28N 38°08' E 013°22'0 0.0
2019-Sep-21 08:58N 38°08' E 013°22'0 0.0
2019-Sep-21 08:28N 38°08' E 013°22'0 0.0
2019-Sep-21 07:58N 38°08' E 013°22'0 0.0
2019-Sep-21 07:28N 38°08' E 013°22'0 0.0
2019-Sep-21 06:58N 38°08' E 013°22'0 0.0
2019-Sep-21 06:28N 38°08' E 013°22'0 0.8
2019-Sep-21 06:01N 38°08' E 013°22'2 4.6
2019-Sep-21 05:30N 38°09' E 013°25'4 7.8
2019-Sep-21 05:00N 38°13' E 013°24'713.9
2019-Sep-21 04:30N 38°17' E 013°17'816.3
2019-Sep-21 04:00N 38°16' E 013°07'816.2
2019-Sep-21 03:30N 38°15' E 012°56'816.1
2019-Sep-21 03:00N 38°15' E 012°46'816.3
2019-Sep-21 02:30N 38°14' E 012°36'816.6
2019-Sep-21 02:00N 38°12' E 012°26'189 5.7
2019-Sep-19 16:43N 37°20' E 016°15'714.8
2019-Sep-19 16:16N 37°26' E 016°10'312.9
2019-Sep-19 16:00N 37°28' E 016°07'1018.2
2019-Sep-19 15:28N 37°33' E 015°57'918.7
2019-Sep-19 15:00N 37°38' E 015°48'1018.8
2019-Sep-19 14:27N 37°44' E 015°37'715.8
2019-Sep-19 13:59N 37°50' E 015°33'7 7.3
2019-Sep-19 13:00N 37°58' E 015°33'714.5
2019-Sep-19 12:30N 38°05' E 015°34'611.7
2019-Sep-19 12:00N 38°11' E 015°35'612.2
2019-Sep-19 11:30N 38°16' E 015°40'510.5
2019-Sep-19 11:00N 38°21' E 015°38'4 8.7
2019-Sep-19 10:30N 38°23' E 015°33'4 8.5
2019-Sep-19 10:00N 38°27' E 015°30'4 8.5
2019-Sep-19 09:30N 38°30' E 015°26'4 8.5
2019-Sep-19 09:00N 38°33' E 015°23'4 8.6
2019-Sep-19 08:30N 38°36' E 015°19'4 8.6
2019-Sep-19 08:00N 38°40' E 015°16'4 8.8
2019-Sep-19 07:30N 38°43' E 015°12'5 9.3
2019-Sep-19 07:00N 38°47' E 015°09'5 9.0
2019-Sep-19 06:30N 38°51' E 015°10'5 9.1
2019-Sep-19 06:00N 38°56' E 015°09'5 9.5
2019-Sep-19 05:30N 38°60' E 015°07'63 9.2
2019-Sep-18 22:40N 39°56' E 014°31'2 9.2
2019-Sep-18 22:29N 39°58' E 014°30'4 9.3
2019-Sep-18 22:00N 40°02' E 014°27'5 9.4
2019-Sep-18 21:30N 40°06' E 014°25'5 9.5
2019-Sep-18 21:00N 40°10' E 014°22'5 9.3
2019-Sep-18 20:30N 40°14' E 014°19'5 9.4
2019-Sep-18 20:00N 40°18' E 014°16'5 9.5
2019-Sep-18 19:30N 40°22' E 014°13'5 9.5
2019-Sep-18 18:58N 40°27' E 014°09'5 9.1
2019-Sep-18 18:25N 40°32' E 014°08'4 9.5
2019-Sep-18 18:00N 40°35' E 014°10'510.0
2019-Sep-18 17:30N 40°40' E 014°13'4 8.8
2019-Sep-18 17:00N 40°44' E 014°16'510.1
2019-Sep-18 16:30N 40°49' E 014°17'2 3.4
2019-Sep-18 15:58N 40°50' E 014°16'0 0.0
2019-Sep-18 15:28N 40°50' E 014°16'0 0.0
2019-Sep-18 14:58N 40°50' E 014°16'0 0.0
2019-Sep-18 14:28N 40°50' E 014°16'0 0.0
2019-Sep-18 13:58N 40°50' E 014°16'0 0.0
2019-Sep-18 13:28N 40°50' E 014°16'0 0.0
2019-Sep-18 12:58N 40°50' E 014°16'0 0.0
2019-Sep-18 12:28N 40°50' E 014°16'0 0.0
2019-Sep-18 11:58N 40°50' E 014°16'0 0.0
2019-Sep-18 11:28N 40°50' E 014°16'0 0.0
2019-Sep-18 10:49N 40°50' E 014°16'0 0.0
2019-Sep-18 10:19N 40°50' E 014°16'0 0.0
2019-Sep-18 09:49N 40°50' E 014°16'0 0.0
2019-Sep-18 09:22N 40°50' E 014°16'0 0.0
2019-Sep-18 08:52N 40°50' E 014°16'0 0.0
2019-Sep-18 08:22N 40°50' E 014°16'0 0.0
2019-Sep-18 07:52N 40°50' E 014°16'0 0.0
2019-Sep-18 07:22N 40°50' E 014°16'0 0.0
2019-Sep-18 06:55N 40°50' E 014°16'0 0.0
2019-Sep-18 06:25N 40°50' E 014°16'0 0.0
2019-Sep-18 05:55N 40°50' E 014°16'0 0.0
2019-Sep-18 05:25N 40°50' E 014°16'0 0.0
2019-Sep-18 04:55N 40°50' E 014°16'0 0.0
2019-Sep-18 04:28N 40°50' E 014°16'0 0.0
2019-Sep-18 03:58N 40°50' E 014°16'0 0.3
2019-Sep-18 03:30N 40°50' E 014°16'2 3.4
2019-Sep-18 03:00N 40°49' E 014°17'5 9.0
2019-Sep-18 02:30N 40°45' E 014°14'816.9
2019-Sep-18 02:00N 40°40' E 014°05'816.5
2019-Sep-18 01:30N 40°38' E 013°55'917.0
2019-Sep-18 01:00N 40°39' E 013°43'816.8
2019-Sep-18 00:31N 40°40' E 013°32'816.9
2019-Sep-18 00:00N 40°41' E 013°21'1017.3
2019-Sep-17 23:25N 40°42' E 013°08'717.4
2019-Sep-17 22:59N 40°43' E 012°58'1717.3
2019-Sep-17 21:59N 40°44' E 012°35'817.2
2019-Sep-17 21:30N 40°45' E 012°24'917.1
2019-Sep-17 21:00N 40°46' E 012°13'816.3
2019-Sep-17 20:30N 40°47' E 012°03'2018.5
2019-Sep-17 19:24N 40°50' E 011°36'819.0
2019-Sep-17 19:00N 40°50' E 011°26'83 5.9
2019-Sep-17 04:58N 40°56' E 009°36'5 9.9
2019-Sep-17 04:30N 40°58' E 009°41'1015.3
2019-Sep-17 03:53N 41°03' E 009°51'615.0
2019-Sep-17 03:30N 41°07' E 009°57'815.1
2019-Sep-17 03:00N 41°11' E 010°05'18 9.6
2019-Sep-17 01:10N 41°22' E 010°24'1 8.9
2019-Sep-17 01:00N 41°23' E 010°26'3110.1
2019-Sep-16 21:57N 41°41' E 010°58'510.3
2019-Sep-16 21:30N 41°44' E 011°03'510.4
2019-Sep-16 21:00N 41°47' E 011°09'510.5
2019-Sep-16 20:30N 41°50' E 011°15'510.4
2019-Sep-16 20:00N 41°53' E 011°20'510.5
2019-Sep-16 19:30N 41°57' E 011°26'810.5
2019-Sep-16 18:47N 42°01' E 011°34'6 9.8
2019-Sep-16 18:09N 42°05' E 011°41'3 7.2
2019-Sep-16 17:45N 42°07' E 011°44'1 6.1
2019-Sep-16 17:30N 42°06' E 011°46'1 0.8
2019-Sep-16 16:44N 42°06' E 011°46'0 0.0
2019-Sep-16 16:29N 42°06' E 011°46'0 0.0
2019-Sep-16 15:59N 42°06' E 011°46'0 0.0
2019-Sep-16 13:26N 42°06' E 011°46'0 0.0
2019-Sep-16 12:50N 42°06' E 011°46'0 0.0
2019-Sep-16 11:59N 42°06' E 011°46'0 0.0
2019-Sep-16 11:23N 42°06' E 011°46'0 0.0
2019-Sep-16 10:08N 42°06' E 011°46'0 0.0
2019-Sep-16 09:59N 42°06' E 011°46'0 0.0
2019-Sep-16 09:17N 42°06' E 011°46'0 0.0
2019-Sep-16 08:59N 42°06' E 011°46'0 0.0
2019-Sep-16 07:50N 42°06' E 011°46'0 0.0
2019-Sep-16 07:11N 42°06' E 011°46'0 0.0
2019-Sep-16 06:32N 42°06' E 011°46'0 0.0
2019-Sep-16 06:08N 42°06' E 011°46'0 0.0
2019-Sep-16 05:56N 42°06' E 011°46'0 0.0
2019-Sep-16 05:07N 42°06' E 011°46'5 3.7
2019-Sep-16 03:37N 42°04' E 011°40'1 8.3
2019-Sep-16 03:31N 42°03' E 011°39'713.7
2019-Sep-16 03:00N 41°59' E 011°31'713.4
2019-Sep-16 02:28N 41°56' E 011°22'613.1
2019-Sep-16 02:01N 41°57' E 011°14'712.4
2019-Sep-16 01:26N 41°59' E 011°05'512.4
2019-Sep-16 01:00N 41°60' E 010°58'612.6
2019-Sep-16 00:31N 42°01' E 010°50'612.5
2019-Sep-16 00:01N 42°02' E 010°41'713.0
2019-Sep-15 23:30N 42°03' E 010°33'2413.7
2019-Sep-15 21:46N 42°26' E 010°24'813.3
2019-Sep-15 21:09N 42°33' E 010°17'211.5
2019-Sep-15 21:00N 42°34' E 010°15'918.6
2019-Sep-15 20:30N 42°41' E 010°07'918.0
2019-Sep-15 20:01N 42°49' E 010°02'1019.2
2019-Sep-15 19:31N 42°59' E 010°04'1019.3
2019-Sep-15 19:01N 43°08' E 010°06'1019.0
2019-Sep-15 18:31N 43°18' E 010°08'918.7
2019-Sep-15 18:01N 43°27' E 010°10'612.8
2019-Sep-15 17:30N 43°32' E 010°16'2 3.5
2019-Sep-15 16:59N 43°33' E 010°18'0 0.0
2019-Sep-15 16:29N 43°33' E 010°18'0 0.0
2019-Sep-15 15:59N 43°33' E 010°18'0 0.0
2019-Sep-15 15:29N 43°33' E 010°18'0 0.0
2019-Sep-15 14:59N 43°33' E 010°18'0 0.0
2019-Sep-15 14:29N 43°33' E 010°18'0 0.0
2019-Sep-15 13:59N 43°33' E 010°18'0 0.0
2019-Sep-15 13:29N 43°33' E 010°18'0 0.0
2019-Sep-15 12:59N 43°33' E 010°18'0 0.0
2019-Sep-15 12:29N 43°33' E 010°18'0 0.0
2019-Sep-15 11:59N 43°33' E 010°18'0 0.0
2019-Sep-15 11:29N 43°33' E 010°18'0 0.0
2019-Sep-15 10:59N 43°33' E 010°18'0 0.0
2019-Sep-15 10:29N 43°33' E 010°18'0 0.0
2019-Sep-15 09:59N 43°33' E 010°18'0 0.0
2019-Sep-15 09:29N 43°33' E 010°18'0 0.0
2019-Sep-15 08:59N 43°33' E 010°18'0 0.0
2019-Sep-15 08:29N 43°33' E 010°18'0 0.0
2019-Sep-15 07:59N 43°33' E 010°18'0 0.0
2019-Sep-15 07:29N 43°33' E 010°18'0 0.0
2019-Sep-15 06:59N 43°33' E 010°18'0 0.0
2019-Sep-15 06:26N 43°33' E 010°18'0 0.0
2019-Sep-15 05:59N 43°33' E 010°18'0 0.0
2019-Sep-15 05:29N 43°33' E 010°18'0 0.0
2019-Sep-15 04:59N 43°33' E 010°18'0 0.2
2019-Sep-15 04:30N 43°33' E 010°18'2 4.8
2019-Sep-15 04:00N 43°31' E 010°16'4 8.9
2019-Sep-15 03:30N 43°28' E 010°11'510.6
2019-Sep-15 03:01N 43°24' E 010°06'815.1
2019-Sep-15 02:31N 43°19' E 009°59'815.2
2019-Sep-15 02:01N 43°16' E 009°49'815.2
2019-Sep-15 01:31N 43°15' E 009°39'815.0
2019-Sep-15 01:01N 43°15' E 009°29'815.0
2019-Sep-15 00:31N 43°14' E 009°18'815.1
2019-Sep-15 00:01N 43°13' E 009°08'815.2
2019-Sep-14 23:31N 43°11' E 008°58'815.1
2019-Sep-14 23:01N 43°10' E 008°48'815.3
2019-Sep-14 22:31N 43°09' E 008°37'815.5
2019-Sep-14 22:01N 43°08' E 008°27'714.0
2019-Sep-14 21:30N 43°07' E 008°17'918.5
2019-Sep-14 21:00N 43°05' E 008°05'918.4
2019-Sep-14 20:30N 43°02' E 007°53'918.4
2019-Sep-14 20:00N 42°60' E 007°41'918.7
2019-Sep-14 19:30N 43°01' E 007°28'918.5
2019-Sep-14 19:00N 43°01' E 007°16'918.4
2019-Sep-14 18:30N 43°00' E 007°03'918.3
2019-Sep-14 18:00N 42°57' E 006°51'918.1
2019-Sep-14 17:30N 42°56' E 006°39'917.9
2019-Sep-14 16:59N 42°55' E 006°26'2315.8
2019-Sep-14 15:31N 43°05' E 005°58'0 6.9
2019-Sep-14 15:27N 43°05' E 005°57'2 5.0
2019-Sep-14 15:01N 43°07' E 005°56'0 0.2
2019-Sep-14 14:27N 43°07' E 005°56'0 0.0
2019-Sep-14 13:51N 43°07' E 005°56'0 0.0
2019-Sep-14 13:27N 43°07' E 005°56'0 0.0
2019-Sep-14 13:00N 43°07' E 005°56'0 0.0
2019-Sep-14 12:30N 43°07' E 005°56'0 0.0
2019-Sep-14 12:00N 43°07' E 005°56'0 0.0
2019-Sep-14 11:30N 43°07' E 005°56'0 0.0
2019-Sep-14 11:00N 43°07' E 005°56'0 0.0
2019-Sep-14 10:30N 43°07' E 005°56'0 0.0
2019-Sep-14 10:00N 43°07' E 005°56'0 0.0
2019-Sep-14 09:30N 43°07' E 005°56'0 0.0
2019-Sep-14 08:57N 43°07' E 005°56'0 0.0
2019-Sep-14 08:30N 43°07' E 005°56'0 0.0
2019-Sep-14 08:00N 43°07' E 005°56'0 0.0
2019-Sep-14 07:30N 43°07' E 005°56'0 0.0
2019-Sep-14 07:00N 43°07' E 005°56'0 0.2
2019-Sep-14 06:30N 43°07' E 005°56'1 2.9
2019-Sep-14 06:00N 43°06' E 005°55'6910.7
2019-Sep-13 23:32N 42°23' E 004°41'013.4
2019-Sep-13 23:30N 42°23' E 004°40'713.4
2019-Sep-13 23:00N 42°19' E 004°32'713.1
2019-Sep-13 22:31N 42°16' E 004°25'713.4
2019-Sep-13 22:01N 42°13' E 004°17'713.6
2019-Sep-13 21:31N 42°10' E 004°08'713.7
2019-Sep-13 21:01N 42°07' E 004°00'713.8
2019-Sep-13 20:30N 42°04' E 003°52'713.4
2019-Sep-13 20:00N 42°01' E 003°44'713.5
2019-Sep-13 19:30N 41°58' E 003°36'15 0.9
2019-Sep-13 02:27N 41°45' E 003°26'1212.8
2019-Sep-13 01:30N 41°43' E 003°42'612.5
2019-Sep-13 01:00N 41°43' E 003°50'612.5
2019-Sep-13 00:30N 41°42' E 003°58'612.5
2019-Sep-13 00:00N 41°42' E 004°07'612.6
2019-Sep-12 23:30N 41°41' E 004°15'612.8
2019-Sep-12 23:00N 41°40' E 004°24'613.0
2019-Sep-12 22:30N 41°40' E 004°32'612.7
2019-Sep-12 22:00N 41°39' E 004°41'612.8
2019-Sep-12 21:30N 41°38' E 004°49'612.9
2019-Sep-12 21:00N 41°37' E 004°58'612.8
2019-Sep-12 20:30N 41°36' E 005°06'713.2
2019-Sep-12 20:00N 41°36' E 005°15'713.3
2019-Sep-12 19:30N 41°36' E 005°24'713.4
2019-Sep-12 19:00N 41°35' E 005°33'713.4
2019-Sep-12 18:30N 41°34' E 005°42'713.4
2019-Sep-12 17:59N 41°33' E 005°51'1213.6
2019-Sep-12 17:08N 41°32' E 006°06'213.5
2019-Sep-12 17:00N 41°32' E 006°09'713.3
2019-Sep-12 16:30N 41°31' E 006°17'713.3
2019-Sep-12 16:00N 41°30' E 006°26'1213.3
2019-Sep-12 15:04N 41°29' E 006°43'613.3
2019-Sep-12 14:37N 41°29' E 006°51'113.3
2019-Sep-12 14:30N 41°28' E 006°53'713.2
2019-Sep-12 14:00N 41°28' E 007°02'713.1
2019-Sep-12 13:30N 41°27' E 007°10'813.0
2019-Sep-12 12:55N 41°26' E 007°20'1713.9
2019-Sep-12 11:40N 41°25' E 007°43'214.4
2019-Sep-12 11:30N 41°24' E 007°46'713.6
2019-Sep-12 11:00N 41°24' E 007°55'613.0
2019-Sep-12 10:30N 41°23' E 008°04'713.3
2019-Sep-12 10:00N 41°22' E 008°13'713.2
2019-Sep-12 09:30N 41°22' E 008°22'713.2
2019-Sep-12 09:00N 41°21' E 008°30'713.4
2019-Sep-12 08:30N 41°20' E 008°39'713.3
2019-Sep-12 08:00N 41°20' E 008°48'712.6
2019-Sep-12 07:25N 41°19' E 008°58'3116.6
2019-Sep-12 05:33N 41°20' E 009°39'216.8
2019-Sep-12 05:26N 41°20' E 009°42'716.4
2019-Sep-12 05:00N 41°18' E 009°51'816.0
2019-Sep-12 04:30N 41°16' E 010°01'815.8
2019-Sep-12 04:00N 41°15' E 010°11'916.5
2019-Sep-12 03:27N 41°13' E 010°23'1416.6
2019-Sep-12 02:37N 41°10' E 010°41'216.8
2019-Sep-12 02:30N 41°10' E 010°44'816.8
2019-Sep-12 02:00N 41°08' E 010°55'1616.9
2019-Sep-12 01:04N 41°04' E 011°15'116.9
2019-Sep-12 01:00N 41°04' E 011°17'917.1
2019-Sep-12 00:30N 41°02' E 011°28'1317.2
2019-Sep-11 23:44N 40°59' E 011°45'417.2
2019-Sep-11 23:30N 40°59' E 011°50'917.3
2019-Sep-11 23:00N 40°57' E 012°01'4617.1
2019-Sep-11 20:21N 40°47' E 012°60'816.8
2019-Sep-11 19:51N 40°45' E 013°11'616.6
2019-Sep-11 19:30N 40°44' E 013°18'1016.6
2019-Sep-11 18:54N 40°41' E 013°31'716.6
2019-Sep-11 18:30N 40°40' E 013°39'816.5
2019-Sep-11 18:00N 40°38' E 013°50'816.5
2019-Sep-11 17:30N 40°38' E 014°01'816.6
2019-Sep-11 17:00N 40°43' E 014°10'714.6
2019-Sep-11 16:30N 40°48' E 014°17'2 4.6
2019-Sep-11 15:59N 40°50' E 014°16'0 0.0
2019-Sep-11 15:29N 40°50' E 014°16'0 0.0
2019-Sep-11 14:59N 40°50' E 014°16'0 0.0
2019-Sep-11 14:29N 40°50' E 014°16'0 0.0
2019-Sep-11 13:59N 40°50' E 014°16'0 0.0
2019-Sep-11 13:29N 40°50' E 014°16'0 0.0
2019-Sep-11 12:59N 40°50' E 014°16'0 0.0
2019-Sep-11 12:29N 40°50' E 014°16'0 0.0
2019-Sep-11 11:59N 40°50' E 014°16'0 0.0
2019-Sep-11 11:29N 40°50' E 014°16'0 0.0
2019-Sep-11 10:59N 40°50' E 014°16'  
Track history (hours):
 
Tides and Currents Weather Stations Pressure Air Temp Water Temp Dewpoint Dewpoint Depression Visibility Wind Speed Wind Dir Waves Ship Positions

Celebrity Century

Last reported at 2019-Sep-21 10:58 UTC. Time now 2019-Sep-21 11:12 UTC.
Position N 38°08' E 013°22'.

Length 247 m; draft 8 m.

Type: Ship. MMSI: 249054000.

Date/timePositionNaut miles runAvg speedWind from/ knotsBaromVisibWave heightAir tempDewpointWater temp
2019-Sep-21 10:58N 38°08' E 013°22'0 0.0
2019-Sep-21 10:28N 38°08' E 013°22'0 0.0
2019-Sep-21 09:58N 38°08' E 013°22'0 0.0
2019-Sep-21 09:28N 38°08' E 013°22'0 0.0
2019-Sep-21 08:58N 38°08' E 013°22'0 0.0
2019-Sep-21 08:28N 38°08' E 013°22'0 0.0
2019-Sep-21 07:58N 38°08' E 013°22'0 0.0
2019-Sep-21 07:28N 38°08' E 013°22'0 0.0
2019-Sep-21 06:58N 38°08' E 013°22'0 0.0
2019-Sep-21 06:28N 38°08' E 013°22'0 0.8
2019-Sep-21 06:01N 38°08' E 013°22'2 4.6
2019-Sep-21 05:30N 38°09' E 013°25'4 7.8
2019-Sep-21 05:00N 38°13' E 013°24'713.9
2019-Sep-21 04:30N 38°17' E 013°17'816.3
2019-Sep-21 04:00N 38°16' E 013°07'816.2
2019-Sep-21 03:30N 38°15' E 012°56'816.1
2019-Sep-21 03:00N 38°15' E 012°46'816.3
2019-Sep-21 02:30N 38°14' E 012°36'816.6
2019-Sep-21 02:00N 38°12' E 012°26'189 5.7
2019-Sep-19 16:43N 37°20' E 016°15'714.8
2019-Sep-19 16:16N 37°26' E 016°10'312.9
2019-Sep-19 16:00N 37°28' E 016°07'1018.2
2019-Sep-19 15:28N 37°33' E 015°57'918.7
2019-Sep-19 15:00N 37°38' E 015°48'1018.8
2019-Sep-19 14:27N 37°44' E 015°37'715.8
2019-Sep-19 13:59N 37°50' E 015°33'7 7.3
2019-Sep-19 13:00N 37°58' E 015°33'714.5
2019-Sep-19 12:30N 38°05' E 015°34'611.7
2019-Sep-19 12:00N 38°11' E 015°35'612.2
2019-Sep-19 11:30N 38°16' E 015°40'510.5
2019-Sep-19 11:00N 38°21' E 015°38'4 8.7
2019-Sep-19 10:30N 38°23' E 015°33'4 8.5
2019-Sep-19 10:00N 38°27' E 015°30'4 8.5
2019-Sep-19 09:30N 38°30' E 015°26'4 8.5
2019-Sep-19 09:00N 38°33' E 015°23'4 8.6
2019-Sep-19 08:30N 38°36' E 015°19'4 8.6
2019-Sep-19 08:00N 38°40' E 015°16'4 8.8
2019-Sep-19 07:30N 38°43' E 015°12'5 9.3
2019-Sep-19 07:00N 38°47' E 015°09'5 9.0
2019-Sep-19 06:30N 38°51' E 015°10'5 9.1
2019-Sep-19 06:00N 38°56' E 015°09'5 9.5
2019-Sep-19 05:30N 38°60' E 015°07'63 9.2
2019-Sep-18 22:40N 39°56' E 014°31'2 9.2
2019-Sep-18 22:29N 39°58' E 014°30'4 9.3
2019-Sep-18 22:00N 40°02' E 014°27'5 9.4
2019-Sep-18 21:30N 40°06' E 014°25'5 9.5
2019-Sep-18 21:00N 40°10' E 014°22'5 9.3
2019-Sep-18 20:30N 40°14' E 014°19'5 9.4
2019-Sep-18 20:00N 40°18' E 014°16'5 9.5
2019-Sep-18 19:30N 40°22' E 014°13'5 9.5
2019-Sep-18 18:58N 40°27' E 014°09'5 9.1
2019-Sep-18 18:25N 40°32' E 014°08'4 9.5
2019-Sep-18 18:00N 40°35' E 014°10'510.0
2019-Sep-18 17:30N 40°40' E 014°13'4 8.8
2019-Sep-18 17:00N 40°44' E 014°16'510.1
2019-Sep-18 16:30N 40°49' E 014°17'2 3.4
2019-Sep-18 15:58N 40°50' E 014°16'0 0.0
2019-Sep-18 15:28N 40°50' E 014°16'0 0.0
2019-Sep-18 14:58N 40°50' E 014°16'0 0.0
2019-Sep-18 14:28N 40°50' E 014°16'0 0.0
2019-Sep-18 13:58N 40°50' E 014°16'0 0.0
2019-Sep-18 13:28N 40°50' E 014°16'0 0.0
2019-Sep-18 12:58N 40°50' E 014°16'0 0.0
2019-Sep-18 12:28N 40°50' E 014°16'0 0.0
2019-Sep-18 11:58N 40°50' E 014°16'0 0.0
2019-Sep-18 11:28N 40°50' E 014°16'0 0.0
2019-Sep-18 10:49N 40°50' E 014°16'0 0.0
2019-Sep-18 10:19N 40°50' E 014°16'0 0.0
2019-Sep-18 09:49N 40°50' E 014°16'0 0.0
2019-Sep-18 09:22N 40°50' E 014°16'0 0.0
2019-Sep-18 08:52N 40°50' E 014°16'0 0.0
2019-Sep-18 08:22N 40°50' E 014°16'0 0.0
2019-Sep-18 07:52N 40°50' E 014°16'0 0.0
2019-Sep-18 07:22N 40°50' E 014°16'0 0.0
2019-Sep-18 06:55N 40°50' E 014°16'0 0.0
2019-Sep-18 06:25N 40°50' E 014°16'0 0.0
2019-Sep-18 05:55N 40°50' E 014°16'0 0.0
2019-Sep-18 05:25N 40°50' E 014°16'0 0.0
2019-Sep-18 04:55N 40°50' E 014°16'0 0.0
2019-Sep-18 04:28N 40°50' E 014°16'0 0.0
2019-Sep-18 03:58N 40°50' E 014°16'0 0.3
2019-Sep-18 03:30N 40°50' E 014°16'2 3.4
2019-Sep-18 03:00N 40°49' E 014°17'5 9.0
2019-Sep-18 02:30N 40°45' E 014°14'816.9
2019-Sep-18 02:00N 40°40' E 014°05'816.5
2019-Sep-18 01:30N 40°38' E 013°55'917.0
2019-Sep-18 01:00N 40°39' E 013°43'816.8
2019-Sep-18 00:31N 40°40' E 013°32'816.9
2019-Sep-18 00:00N 40°41' E 013°21'1017.3
2019-Sep-17 23:25N 40°42' E 013°08'717.4
2019-Sep-17 22:59N 40°43' E 012°58'1717.3
2019-Sep-17 21:59N 40°44' E 012°35'817.2
2019-Sep-17 21:30N 40°45' E 012°24'917.1
2019-Sep-17 21:00N 40°46' E 012°13'816.3
2019-Sep-17 20:30N 40°47' E 012°03'2018.5
2019-Sep-17 19:24N 40°50' E 011°36'819.0
2019-Sep-17 19:00N 40°50' E 011°26'83 5.9
2019-Sep-17 04:58N 40°56' E 009°36'5 9.9
2019-Sep-17 04:30N 40°58' E 009°41'1015.3
2019-Sep-17 03:53N 41°03' E 009°51'615.0
2019-Sep-17 03:30N 41°07' E 009°57'815.1
2019-Sep-17 03:00N 41°11' E 010°05'18 9.6
2019-Sep-17 01:10N 41°22' E 010°24'1 8.9
2019-Sep-17 01:00N 41°23' E 010°26'3110.1
2019-Sep-16 21:57N 41°41' E 010°58'510.3
2019-Sep-16 21:30N 41°44' E 011°03'510.4
2019-Sep-16 21:00N 41°47' E 011°09'510.5
2019-Sep-16 20:30N 41°50' E 011°15'510.4
2019-Sep-16 20:00N 41°53' E 011°20'510.5
2019-Sep-16 19:30N 41°57' E 011°26'810.5
2019-Sep-16 18:47N 42°01' E 011°34'6 9.8
2019-Sep-16 18:09N 42°05' E 011°41'3 7.2
2019-Sep-16 17:45N 42°07' E 011°44'1 6.1
2019-Sep-16 17:30N 42°06' E 011°46'1 0.8
2019-Sep-16 16:44N 42°06' E 011°46'0 0.0
2019-Sep-16 16:29N 42°06' E 011°46'0 0.0
2019-Sep-16 15:59N 42°06' E 011°46'0 0.0
2019-Sep-16 13:26N 42°06' E 011°46'0 0.0
2019-Sep-16 12:50N 42°06' E 011°46'0 0.0
2019-Sep-16 11:59N 42°06' E 011°46'0 0.0
2019-Sep-16 11:23N 42°06' E 011°46'0 0.0
2019-Sep-16 10:08N 42°06' E 011°46'0 0.0
2019-Sep-16 09:59N 42°06' E 011°46'0 0.0
2019-Sep-16 09:17N 42°06' E 011°46'0 0.0
2019-Sep-16 08:59N 42°06' E 011°46'0 0.0
2019-Sep-16 07:50N 42°06' E 011°46'0 0.0
2019-Sep-16 07:11N 42°06' E 011°46'0 0.0
2019-Sep-16 06:32N 42°06' E 011°46'0 0.0
2019-Sep-16 06:08N 42°06' E 011°46'0 0.0
2019-Sep-16 05:56N 42°06' E 011°46'0 0.0
2019-Sep-16 05:07N 42°06' E 011°46'5 3.7
2019-Sep-16 03:37N 42°04' E 011°40'1 8.3
2019-Sep-16 03:31N 42°03' E 011°39'713.7
2019-Sep-16 03:00N 41°59' E 011°31'713.4
2019-Sep-16 02:28N 41°56' E 011°22'613.1
2019-Sep-16 02:01N 41°57' E 011°14'712.4
2019-Sep-16 01:26N 41°59' E 011°05'512.4
2019-Sep-16 01:00N 41°60' E 010°58'612.6
2019-Sep-16 00:31N 42°01' E 010°50'612.5
2019-Sep-16 00:01N 42°02' E 010°41'713.0
2019-Sep-15 23:30N 42°03' E 010°33'2413.7
2019-Sep-15 21:46N 42°26' E 010°24'813.3
2019-Sep-15 21:09N 42°33' E 010°17'211.5
2019-Sep-15 21:00N 42°34' E 010°15'918.6
2019-Sep-15 20:30N 42°41' E 010°07'918.0
2019-Sep-15 20:01N 42°49' E 010°02'1019.2
2019-Sep-15 19:31N 42°59' E 010°04'1019.3
2019-Sep-15 19:01N 43°08' E 010°06'1019.0
2019-Sep-15 18:31N 43°18' E 010°08'918.7
2019-Sep-15 18:01N 43°27' E 010°10'612.8
2019-Sep-15 17:30N 43°32' E 010°16'2 3.5
2019-Sep-15 16:59N 43°33' E 010°18'0 0.0
2019-Sep-15 16:29N 43°33' E 010°18'0 0.0
2019-Sep-15 15:59N 43°33' E 010°18'0 0.0
2019-Sep-15 15:29N 43°33' E 010°18'0 0.0
2019-Sep-15 14:59N 43°33' E 010°18'0 0.0
2019-Sep-15 14:29N 43°33' E 010°18'0 0.0
2019-Sep-15 13:59N 43°33' E 010°18'0 0.0
2019-Sep-15 13:29N 43°33' E 010°18'0 0.0
2019-Sep-15 12:59N 43°33' E 010°18'0 0.0
2019-Sep-15 12:29N 43°33' E 010°18'0 0.0
2019-Sep-15 11:59N 43°33' E 010°18'0 0.0
2019-Sep-15 11:29N 43°33' E 010°18'0 0.0
2019-Sep-15 10:59N 43°33' E 010°18'0 0.0
2019-Sep-15 10:29N 43°33' E 010°18'0 0.0
2019-Sep-15 09:59N 43°33' E 010°18'0 0.0
2019-Sep-15 09:29N 43°33' E 010°18'0 0.0
2019-Sep-15 08:59N 43°33' E 010°18'0 0.0
2019-Sep-15 08:29N 43°33' E 010°18'0 0.0
2019-Sep-15 07:59N 43°33' E 010°18'0 0.0
2019-Sep-15 07:29N 43°33' E 010°18'0 0.0
2019-Sep-15 06:59N 43°33' E 010°18'0 0.0
2019-Sep-15 06:26N 43°33' E 010°18'0 0.0
2019-Sep-15 05:59N 43°33' E 010°18'0 0.0
2019-Sep-15 05:29N 43°33' E 010°18'0 0.0
2019-Sep-15 04:59N 43°33' E 010°18'0 0.2
2019-Sep-15 04:30N 43°33' E 010°18'2 4.8
2019-Sep-15 04:00N 43°31' E 010°16'4 8.9
2019-Sep-15 03:30N 43°28' E 010°11'510.6
2019-Sep-15 03:01N 43°24' E 010°06'815.1
2019-Sep-15 02:31N 43°19' E 009°59'815.2
2019-Sep-15 02:01N 43°16' E 009°49'815.2
2019-Sep-15 01:31N 43°15' E 009°39'815.0
2019-Sep-15 01:01N 43°15' E 009°29'815.0
2019-Sep-15 00:31N 43°14' E 009°18'815.1
2019-Sep-15 00:01N 43°13' E 009°08'815.2
2019-Sep-14 23:31N 43°11' E 008°58'815.1
2019-Sep-14 23:01N 43°10' E 008°48'815.3
2019-Sep-14 22:31N 43°09' E 008°37'815.5
2019-Sep-14 22:01N 43°08' E 008°27'714.0
2019-Sep-14 21:30N 43°07' E 008°17'918.5
2019-Sep-14 21:00N 43°05' E 008°05'918.4
2019-Sep-14 20:30N 43°02' E 007°53'918.4
2019-Sep-14 20:00N 42°60' E 007°41'918.7
2019-Sep-14 19:30N 43°01' E 007°28'918.5
2019-Sep-14 19:00N 43°01' E 007°16'918.4
2019-Sep-14 18:30N 43°00' E 007°03'918.3
2019-Sep-14 18:00N 42°57' E 006°51'918.1
2019-Sep-14 17:30N 42°56' E 006°39'917.9
2019-Sep-14 16:59N 42°55' E 006°26'2315.8
2019-Sep-14 15:31N 43°05' E 005°58'0 6.9
2019-Sep-14 15:27N 43°05' E 005°57'2 5.0
2019-Sep-14 15:01N 43°07' E 005°56'0 0.2
2019-Sep-14 14:27N 43°07' E 005°56'0 0.0
2019-Sep-14 13:51N 43°07' E 005°56'0 0.0
2019-Sep-14 13:27N 43°07' E 005°56'0 0.0
2019-Sep-14 13:00N 43°07' E 005°56'0 0.0
2019-Sep-14 12:30N 43°07' E 005°56'0 0.0
2019-Sep-14 12:00N 43°07' E 005°56'0 0.0
2019-Sep-14 11:30N 43°07' E 005°56'0 0.0
2019-Sep-14 11:00N 43°07' E 005°56'0 0.0
2019-Sep-14 10:30N 43°07' E 005°56'0 0.0
2019-Sep-14 10:00N 43°07' E 005°56'0 0.0
2019-Sep-14 09:30N 43°07' E 005°56'0 0.0
2019-Sep-14 08:57N 43°07' E 005°56'0 0.0
2019-Sep-14 08:30N 43°07' E 005°56'0 0.0
2019-Sep-14 08:00N 43°07' E 005°56'0 0.0
2019-Sep-14 07:30N 43°07' E 005°56'0 0.0
2019-Sep-14 07:00N 43°07' E 005°56'0 0.2
2019-Sep-14 06:30N 43°07' E 005°56'1 2.9
2019-Sep-14 06:00N 43°06' E 005°55'6910.7
2019-Sep-13 23:32N 42°23' E 004°41'013.4
2019-Sep-13 23:30N 42°23' E 004°40'713.4
2019-Sep-13 23:00N 42°19' E 004°32'713.1
2019-Sep-13 22:31N 42°16' E 004°25'713.4
2019-Sep-13 22:01N 42°13' E 004°17'713.6
2019-Sep-13 21:31N 42°10' E 004°08'713.7
2019-Sep-13 21:01N 42°07' E 004°00'713.8
2019-Sep-13 20:30N 42°04' E 003°52'713.4
2019-Sep-13 20:00N 42°01' E 003°44'713.5
2019-Sep-13 19:30N 41°58' E 003°36'15 0.9
2019-Sep-13 02:27N 41°45' E 003°26'1212.8
2019-Sep-13 01:30N 41°43' E 003°42'612.5
2019-Sep-13 01:00N 41°43' E 003°50'612.5
2019-Sep-13 00:30N 41°42' E 003°58'612.5
2019-Sep-13 00:00N 41°42' E 004°07'612.6
2019-Sep-12 23:30N 41°41' E 004°15'612.8
2019-Sep-12 23:00N 41°40' E 004°24'613.0
2019-Sep-12 22:30N 41°40' E 004°32'612.7
2019-Sep-12 22:00N 41°39' E 004°41'612.8
2019-Sep-12 21:30N 41°38' E 004°49'612.9
2019-Sep-12 21:00N 41°37' E 004°58'612.8
2019-Sep-12 20:30N 41°36' E 005°06'713.2
2019-Sep-12 20:00N 41°36' E 005°15'713.3
2019-Sep-12 19:30N 41°36' E 005°24'713.4
2019-Sep-12 19:00N 41°35' E 005°33'713.4
2019-Sep-12 18:30N 41°34' E 005°42'713.4
2019-Sep-12 17:59N 41°33' E 005°51'1213.6
2019-Sep-12 17:08N 41°32' E 006°06'213.5
2019-Sep-12 17:00N 41°32' E 006°09'713.3
2019-Sep-12 16:30N 41°31' E 006°17'713.3
2019-Sep-12 16:00N 41°30' E 006°26'1213.3
2019-Sep-12 15:04N 41°29' E 006°43'613.3
2019-Sep-12 14:37N 41°29' E 006°51'113.3
2019-Sep-12 14:30N 41°28' E 006°53'713.2
2019-Sep-12 14:00N 41°28' E 007°02'713.1
2019-Sep-12 13:30N 41°27' E 007°10'813.0
2019-Sep-12 12:55N 41°26' E 007°20'1713.9
2019-Sep-12 11:40N 41°25' E 007°43'214.4
2019-Sep-12 11:30N 41°24' E 007°46'713.6
2019-Sep-12 11:00N 41°24' E 007°55'613.0
2019-Sep-12 10:30N 41°23' E 008°04'713.3
2019-Sep-12 10:00N 41°22' E 008°13'713.2
2019-Sep-12 09:30N 41°22' E 008°22'713.2
2019-Sep-12 09:00N 41°21' E 008°30'713.4
2019-Sep-12 08:30N 41°20' E 008°39'713.3
2019-Sep-12 08:00N 41°20' E 008°48'712.6
2019-Sep-12 07:25N 41°19' E 008°58'3116.6
2019-Sep-12 05:33N 41°20' E 009°39'216.8
2019-Sep-12 05:26N 41°20' E 009°42'716.4
2019-Sep-12 05:00N 41°18' E 009°51'816.0
2019-Sep-12 04:30N 41°16' E 010°01'815.8
2019-Sep-12 04:00N 41°15' E 010°11'916.5
2019-Sep-12 03:27N 41°13' E 010°23'1416.6
2019-Sep-12 02:37N 41°10' E 010°41'216.8
2019-Sep-12 02:30N 41°10' E 010°44'816.8
2019-Sep-12 02:00N 41°08' E 010°55'1616.9
2019-Sep-12 01:04N 41°04' E 011°15'116.9
2019-Sep-12 01:00N 41°04' E 011°17'917.1
2019-Sep-12 00:30N 41°02' E 011°28'1317.2
2019-Sep-11 23:44N 40°59' E 011°45'417.2
2019-Sep-11 23:30N 40°59' E 011°50'917.3
2019-Sep-11 23:00N 40°57' E 012°01'4617.1
2019-Sep-11 20:21N 40°47' E 012°60'816.8
2019-Sep-11 19:51N 40°45' E 013°11'616.6
2019-Sep-11 19:30N 40°44' E 013°18'1016.6
2019-Sep-11 18:54N 40°41' E 013°31'716.6
2019-Sep-11 18:30N 40°40' E 013°39'816.5
2019-Sep-11 18:00N 40°38' E 013°50'816.5
2019-Sep-11 17:30N 40°38' E 014°01'816.6
2019-Sep-11 17:00N 40°43' E 014°10'714.6
2019-Sep-11 16:30N 40°48' E 014°17'2 4.6
2019-Sep-11 15:59N 40°50' E 014°16'0 0.0
2019-Sep-11 15:29N 40°50' E 014°16'0 0.0
2019-Sep-11 14:59N 40°50' E 014°16'0 0.0
2019-Sep-11 14:29N 40°50' E 014°16'0 0.0
2019-Sep-11 13:59N 40°50' E 014°16'0 0.0
2019-Sep-11 13:29N 40°50' E 014°16'0 0.0
2019-Sep-11 12:59N 40°50' E 014°16'0 0.0
2019-Sep-11 12:29N 40°50' E 014°16'0 0.0
2019-Sep-11 11:59N 40°50' E 014°16'0 0.0
2019-Sep-11 11:29N 40°50' E 014°16'0 0.0
2019-Sep-11 10:59N 40°50' E 014°16'  

Dump ship's entire track history